sensor_id;sensor_type;location;lat;lon;timestamp;pressure;altitude;pressure_sealevel;temperature;humidity
11413;BME280;5762;43.256;26.960;2023-01-27T00:01:16;99159.44;;;6.95;100.00
11413;BME280;5762;43.256;26.960;2023-01-27T00:03:41;99148.74;;;6.93;100.00
11413;BME280;5762;43.256;26.960;2023-01-27T00:06:10;99154.12;;;6.93;100.00
11413;BME280;5762;43.256;26.960;2023-01-27T00:08:38;99147.39;;;6.93;100.00
11413;BME280;5762;43.256;26.960;2023-01-27T00:11:07;99132.09;;;6.91;100.00
11413;BME280;5762;43.256;26.960;2023-01-27T00:13:52;99117.61;;;6.87;100.00
11413;BME280;5762;43.256;26.960;2023-01-27T00:16:21;99106.56;;;6.88;100.00
11413;BME280;5762;43.256;26.960;2023-01-27T00:18:50;99110.57;;;6.91;100.00
11413;BME280;5762;43.256;26.960;2023-01-27T00:21:18;99119.38;;;6.94;100.00
11413;BME280;5762;43.256;26.960;2023-01-27T00:24:04;99149.93;;;7.03;100.00
11413;BME280;5762;43.256;26.960;2023-01-27T00:26:50;99164.98;;;7.04;100.00
11413;BME280;5762;43.256;26.960;2023-01-27T00:29:19;99151.02;;;7.02;100.00
11413;BME280;5762;43.256;26.960;2023-01-27T00:31:47;99148.59;;;7.03;100.00
11413;BME280;5762;43.256;26.960;2023-01-27T00:34:33;99143.27;;;6.98;100.00
11413;BME280;5762;43.256;26.960;2023-01-27T00:37:02;99131.99;;;6.96;100.00
11413;BME280;5762;43.256;26.960;2023-01-27T00:39:31;99119.06;;;6.98;100.00
11413;BME280;5762;43.256;26.960;2023-01-27T00:42:00;99114.51;;;6.96;100.00
11413;BME280;5762;43.256;26.960;2023-01-27T00:44:29;99114.73;;;6.99;100.00
11413;BME280;5762;43.256;26.960;2023-01-27T00:46:59;99120.14;;;6.97;100.00
11413;BME280;5762;43.256;26.960;2023-01-27T00:49:28;99117.97;;;6.99;100.00
11413;BME280;5762;43.256;26.960;2023-01-27T00:51:57;99127.41;;;6.96;100.00
11413;BME280;5762;43.256;26.960;2023-01-27T00:54:26;99127.64;;;7.00;100.00
11413;BME280;5762;43.256;26.960;2023-01-27T00:56:54;99127.09;;;7.00;100.00
11413;BME280;5762;43.256;26.960;2023-01-27T00:59:23;99113.77;;;6.93;100.00
11413;BME280;5762;43.256;26.960;2023-01-27T01:01:52;99116.14;;;6.94;100.00
11413;BME280;5762;43.256;26.960;2023-01-27T01:04:21;99112.48;;;6.88;100.00
11413;BME280;5762;43.256;26.960;2023-01-27T01:06:50;99112.45;;;6.90;100.00
11413;BME280;5762;43.256;26.960;2023-01-27T01:09:19;99132.28;;;6.94;100.00
11413;BME280;5762;43.256;26.960;2023-01-27T01:11:47;99129.02;;;6.97;100.00
11413;BME280;5762;43.256;26.960;2023-01-27T01:14:16;99116.63;;;6.99;100.00
11413;BME280;5762;43.256;26.960;2023-01-27T01:16:45;99110.47;;;6.96;100.00
11413;BME280;5762;43.256;26.960;2023-01-27T01:19:14;99108.81;;;7.00;100.00
11413;BME280;5762;43.256;26.960;2023-01-27T01:21:43;99110.95;;;7.00;100.00
11413;BME280;5762;43.256;26.960;2023-01-27T01:24:12;99114.95;;;7.03;100.00
11413;BME280;5762;43.256;26.960;2023-01-27T01:26:41;99113.33;;;7.04;100.00
11413;BME280;5762;43.256;26.960;2023-01-27T01:29:09;99120.66;;;6.99;100.00
11413;BME280;5762;43.256;26.960;2023-01-27T01:31:38;99124.69;;;6.99;100.00
11413;BME280;5762;43.256;26.960;2023-01-27T01:34:07;99128.41;;;7.03;100.00
11413;BME280;5762;43.256;26.960;2023-01-27T01:36:36;99114.98;;;7.00;100.00
11413;BME280;5762;43.256;26.960;2023-01-27T01:39:05;99106.09;;;7.02;100.00
11413;BME280;5762;43.256;26.960;2023-01-27T01:41:34;99102.09;;;7.00;100.00
11413;BME280;5762;43.256;26.960;2023-01-27T01:44:18;99095.39;;;6.97;100.00
11413;BME280;5762;43.256;26.960;2023-01-27T01:47:29;99098.62;;;6.97;100.00
11413;BME280;5762;43.256;26.960;2023-01-27T01:49:58;99095.10;;;6.99;100.00
11413;BME280;5762;43.256;26.960;2023-01-27T01:54:18;99084.27;;;7.04;100.00
11413;BME280;5762;43.256;26.960;2023-01-27T01:56:49;99074.13;;;6.98;100.00
11413;BME280;5762;43.256;26.960;2023-01-27T01:59:19;99072.56;;;6.95;100.00
11413;BME280;5762;43.256;26.960;2023-01-27T02:01:48;99058.31;;;6.94;100.00
11413;BME280;5762;43.256;26.960;2023-01-27T02:04:18;99064.02;;;6.93;100.00
11413;BME280;5762;43.256;26.960;2023-01-27T02:06:55;99061.80;;;6.95;100.00
11413;BME280;5762;43.256;26.960;2023-01-27T02:09:19;99070.89;;;6.99;100.00
11413;BME280;5762;43.256;26.960;2023-01-27T02:11:49;99059.91;;;6.95;100.00
11413;BME280;5762;43.256;26.960;2023-01-27T02:14:19;99060.09;;;7.01;100.00
11413;BME280;5762;43.256;26.960;2023-01-27T02:16:48;99049.05;;;7.03;100.00
11413;BME280;5762;43.256;26.960;2023-01-27T02:19:39;99060.35;;;7.02;100.00
11413;BME280;5762;43.256;26.960;2023-01-27T02:22:04;99045.30;;;7.01;100.00
11413;BME280;5762;43.256;26.960;2023-01-27T02:24:35;99037.02;;;6.98;100.00
11413;BME280;5762;43.256;26.960;2023-01-27T02:27:03;99031.59;;;7.00;100.00
11413;BME280;5762;43.256;26.960;2023-01-27T02:29:32;99020.29;;;7.01;100.00
11413;BME280;5762;43.256;26.960;2023-01-27T02:32:01;99024.33;;;7.01;100.00
11413;BME280;5762;43.256;26.960;2023-01-27T02:34:29;99019.75;;;7.01;100.00
11413;BME280;5762;43.256;26.960;2023-01-27T02:36:59;99021.81;;;7.07;100.00
11413;BME280;5762;43.256;26.960;2023-01-27T02:39:31;99018.25;;;7.12;100.00
11413;BME280;5762;43.256;26.960;2023-01-27T02:42:00;99011.48;;;7.14;100.00
11413;BME280;5762;43.256;26.960;2023-01-27T02:44:30;99009.63;;;7.12;100.00
11413;BME280;5762;43.256;26.960;2023-01-27T02:46:59;98999.92;;;7.14;100.00
11413;BME280;5762;43.256;26.960;2023-01-27T02:49:28;98983.28;;;7.12;100.00
11413;BME280;5762;43.256;26.960;2023-01-27T02:51:56;98992.40;;;7.13;100.00
11413;BME280;5762;43.256;26.960;2023-01-27T02:54:25;99013.13;;;7.13;100.00
11413;BME280;5762;43.256;26.960;2023-01-27T02:56:55;99002.33;;;7.15;100.00
11413;BME280;5762;43.256;26.960;2023-01-27T02:59:24;98999.05;;;7.18;100.00
11413;BME280;5762;43.256;26.960;2023-01-27T03:01:53;99005.19;;;7.21;100.00
11413;BME280;5762;43.256;26.960;2023-01-27T03:04:22;99007.38;;;7.19;100.00
11413;BME280;5762;43.256;26.960;2023-01-27T03:06:51;99008.64;;;7.24;100.00
11413;BME280;5762;43.256;26.960;2023-01-27T03:09:20;99012.13;;;7.25;100.00
11413;BME280;5762;43.256;26.960;2023-01-27T03:11:49;99015.70;;;7.20;100.00
11413;BME280;5762;43.256;26.960;2023-01-27T03:14:33;99019.38;;;7.27;100.00
11413;BME280;5762;43.256;26.960;2023-01-27T03:17:19;98996.92;;;7.31;100.00
11413;BME280;5762;43.256;26.960;2023-01-27T03:20:04;98982.49;;;7.27;100.00
11413;BME280;5762;43.256;26.960;2023-01-27T03:22:33;98990.61;;;7.25;100.00
11413;BME280;5762;43.256;26.960;2023-01-27T03:25:02;98999.41;;;7.28;100.00
11413;BME280;5762;43.256;26.960;2023-01-27T03:27:31;98999.80;;;7.37;100.00
11413;BME280;5762;43.256;26.960;2023-01-27T03:30:00;98993.69;;;7.32;100.00
11413;BME280;5762;43.256;26.960;2023-01-27T03:32:29;98991.97;;;7.38;100.00
11413;BME280;5762;43.256;26.960;2023-01-27T03:34:58;98984.36;;;7.43;100.00
11413;BME280;5762;43.256;26.960;2023-01-27T03:37:27;98985.74;;;7.40;100.00
11413;BME280;5762;43.256;26.960;2023-01-27T03:40:13;98994.91;;;7.39;100.00
11413;BME280;5762;43.256;26.960;2023-01-27T03:42:59;99012.16;;;7.38;100.00
11413;BME280;5762;43.256;26.960;2023-01-27T03:45:48;99010.27;;;7.39;100.00
11413;BME280;5762;43.256;26.960;2023-01-27T03:48:33;99014.77;;;7.44;100.00
11413;BME280;5762;43.256;26.960;2023-01-27T03:51:02;99020.16;;;7.44;100.00
11413;BME280;5762;43.256;26.960;2023-01-27T03:53:32;99015.86;;;7.43;100.00
11413;BME280;5762;43.256;26.960;2023-01-27T03:56:02;98995.72;;;7.40;100.00
11413;BME280;5762;43.256;26.960;2023-01-27T03:58:33;99003.50;;;7.42;100.00
11413;BME280;5762;43.256;26.960;2023-01-27T04:03:40;98996.84;;;7.36;100.00
11413;BME280;5762;43.256;26.960;2023-01-27T04:06:27;98993.39;;;7.33;100.00
11413;BME280;5762;43.256;26.960;2023-01-27T04:09:12;98990.45;;;7.32;100.00
11413;BME280;5762;43.256;26.960;2023-01-27T04:11:41;98996.38;;;7.32;100.00
11413;BME280;5762;43.256;26.960;2023-01-27T04:14:29;99002.06;;;7.30;100.00
11413;BME280;5762;43.256;26.960;2023-01-27T04:16:59;99006.09;;;7.30;100.00
11413;BME280;5762;43.256;26.960;2023-01-27T04:19:30;99000.20;;;7.28;100.00
11413;BME280;5762;43.256;26.960;2023-01-27T04:22:04;98990.31;;;7.26;100.00
11413;BME280;5762;43.256;26.960;2023-01-27T04:24:28;98990.09;;;7.23;100.00
11413;BME280;5762;43.256;26.960;2023-01-27T04:26:58;98993.55;;;7.26;100.00
11413;BME280;5762;43.256;26.960;2023-01-27T04:29:28;98982.83;;;7.23;100.00
11413;BME280;5762;43.256;26.960;2023-01-27T04:31:56;98981.48;;;7.23;100.00
11413;BME280;5762;43.256;26.960;2023-01-27T04:34:26;98976.31;;;7.27;100.00
11413;BME280;5762;43.256;26.960;2023-01-27T04:36:55;98979.33;;;7.23;100.00
11413;BME280;5762;43.256;26.960;2023-01-27T04:39:24;98978.03;;;7.20;100.00
11413;BME280;5762;43.256;26.960;2023-01-27T04:41:58;98986.36;;;7.21;100.00
11413;BME280;5762;43.256;26.960;2023-01-27T04:44:23;98967.44;;;7.26;100.00
11413;BME280;5762;43.256;26.960;2023-01-27T04:46:51;98972.14;;;7.18;100.00
11413;BME280;5762;43.256;26.960;2023-01-27T04:49:20;98969.61;;;7.08;100.00
11413;BME280;5762;43.256;26.960;2023-01-27T04:51:49;98966.63;;;7.10;100.00
11413;BME280;5762;43.256;26.960;2023-01-27T04:54:18;98974.83;;;7.18;100.00
11413;BME280;5762;43.256;26.960;2023-01-27T04:56:57;98969.74;;;7.17;100.00
11413;BME280;5762;43.256;26.960;2023-01-27T04:59:26;98976.98;;;7.19;100.00
11413;BME280;5762;43.256;26.960;2023-01-27T05:01:55;98958.69;;;7.18;100.00
11413;BME280;5762;43.256;26.960;2023-01-27T05:04:24;98950.23;;;7.25;100.00
11413;BME280;5762;43.256;26.960;2023-01-27T05:06:53;98952.17;;;7.22;100.00
11413;BME280;5762;43.256;26.960;2023-01-27T05:09:22;98949.98;;;7.24;100.00
11413;BME280;5762;43.256;26.960;2023-01-27T05:11:51;98948.94;;;7.22;100.00
11413;BME280;5762;43.256;26.960;2023-01-27T05:14:20;98956.00;;;7.18;100.00
11413;BME280;5762;43.256;26.960;2023-01-27T05:16:49;98954.56;;;7.23;100.00
11413;BME280;5762;43.256;26.960;2023-01-27T05:19:17;98959.04;;;7.28;100.00
11413;BME280;5762;43.256;26.960;2023-01-27T05:21:45;98947.14;;;7.31;100.00
11413;BME280;5762;43.256;26.960;2023-01-27T05:24:14;98942.01;;;7.32;100.00
11413;BME280;5762;43.256;26.960;2023-01-27T05:26:42;98938.98;;;7.36;100.00
11413;BME280;5762;43.256;26.960;2023-01-27T05:29:10;98932.20;;;7.25;100.00
11413;BME280;5762;43.256;26.960;2023-01-27T05:31:39;98936.13;;;7.30;100.00
11413;BME280;5762;43.256;26.960;2023-01-27T05:34:09;98928.42;;;7.40;100.00
11413;BME280;5762;43.256;26.960;2023-01-27T05:36:38;98917.70;;;7.37;100.00
11413;BME280;5762;43.256;26.960;2023-01-27T05:39:08;98914.91;;;7.43;100.00
11413;BME280;5762;43.256;26.960;2023-01-27T05:41:36;98916.56;;;7.41;100.00
11413;BME280;5762;43.256;26.960;2023-01-27T05:44:05;98925.13;;;7.43;100.00
11413;BME280;5762;43.256;26.960;2023-01-27T05:46:36;98927.03;;;7.43;100.00
11413;BME280;5762;43.256;26.960;2023-01-27T05:49:04;98932.16;;;7.42;100.00
11413;BME280;5762;43.256;26.960;2023-01-27T05:51:34;98934.47;;;7.48;100.00
11413;BME280;5762;43.256;26.960;2023-01-27T05:54:02;98933.67;;;7.48;100.00
11413;BME280;5762;43.256;26.960;2023-01-27T05:56:30;98929.13;;;7.46;100.00
11413;BME280;5762;43.256;26.960;2023-01-27T05:58:59;98925.34;;;7.47;100.00
11413;BME280;5762;43.256;26.960;2023-01-27T06:01:28;98921.67;;;7.56;100.00
11413;BME280;5762;43.256;26.960;2023-01-27T06:03:57;98926.63;;;7.63;100.00
11413;BME280;5762;43.256;26.960;2023-01-27T06:06:27;98921.67;;;7.56;100.00
11413;BME280;5762;43.256;26.960;2023-01-27T06:08:55;98926.34;;;7.51;100.00
11413;BME280;5762;43.256;26.960;2023-01-27T06:11:24;98927.95;;;7.52;100.00
11413;BME280;5762;43.256;26.960;2023-01-27T06:13:53;98921.38;;;7.58;100.00
11413;BME280;5762;43.256;26.960;2023-01-27T06:16:23;98931.14;;;7.54;100.00
11413;BME280;5762;43.256;26.960;2023-01-27T06:18:52;98932.94;;;7.58;100.00
11413;BME280;5762;43.256;26.960;2023-01-27T06:21:21;98914.64;;;7.58;100.00
11413;BME280;5762;43.256;26.960;2023-01-27T06:23:49;98915.98;;;7.58;100.00
11413;BME280;5762;43.256;26.960;2023-01-27T06:26:18;98917.93;;;7.55;100.00
11413;BME280;5762;43.256;26.960;2023-01-27T06:28:47;98925.66;;;7.59;100.00
11413;BME280;5762;43.256;26.960;2023-01-27T06:31:16;98930.62;;;7.65;100.00
11413;BME280;5762;43.256;26.960;2023-01-27T06:33:45;98925.10;;;7.73;100.00
11413;BME280;5762;43.256;26.960;2023-01-27T06:36:15;98924.85;;;7.72;100.00
11413;BME280;5762;43.256;26.960;2023-01-27T06:38:43;98919.22;;;7.71;100.00
11413;BME280;5762;43.256;26.960;2023-01-27T06:41:12;98918.41;;;7.70;100.00
11413;BME280;5762;43.256;26.960;2023-01-27T06:43:40;98919.92;;;7.77;100.00
11413;BME280;5762;43.256;26.960;2023-01-27T06:46:09;98914.48;;;7.79;100.00
11413;BME280;5762;43.256;26.960;2023-01-27T06:48:38;98906.95;;;7.79;100.00
11413;BME280;5762;43.256;26.960;2023-01-27T06:51:06;98914.28;;;7.76;100.00
11413;BME280;5762;43.256;26.960;2023-01-27T06:53:35;98922.56;;;7.79;100.00
11413;BME280;5762;43.256;26.960;2023-01-27T06:56:04;98913.67;;;7.65;100.00
11413;BME280;5762;43.256;26.960;2023-01-27T06:58:34;98916.52;;;7.71;100.00
11413;BME280;5762;43.256;26.960;2023-01-27T07:01:06;98914.92;;;7.70;100.00
11413;BME280;5762;43.256;26.960;2023-01-27T07:03:32;98919.69;;;7.62;100.00
11413;BME280;5762;43.256;26.960;2023-01-27T07:06:00;98927.26;;;7.60;100.00
11413;BME280;5762;43.256;26.960;2023-01-27T07:08:29;98928.48;;;7.65;100.00
11413;BME280;5762;43.256;26.960;2023-01-27T07:11:01;98933.02;;;7.67;100.00
11413;BME280;5762;43.256;26.960;2023-01-27T07:13:29;98927.90;;;7.54;100.00
11413;BME280;5762;43.256;26.960;2023-01-27T07:15:58;98927.35;;;7.55;100.00
11413;BME280;5762;43.256;26.960;2023-01-27T07:18:26;98923.91;;;7.52;100.00
11413;BME280;5762;43.256;26.960;2023-01-27T07:20:55;98918.18;;;7.56;100.00
11413;BME280;5762;43.256;26.960;2023-01-27T07:23:23;98923.16;;;7.49;100.00
11413;BME280;5762;43.256;26.960;2023-01-27T07:25:52;98924.80;;;7.47;100.00
11413;BME280;5762;43.256;26.960;2023-01-27T07:28:21;98922.15;;;7.45;100.00
11413;BME280;5762;43.256;26.960;2023-01-27T07:30:50;98929.29;;;7.52;100.00
11413;BME280;5762;43.256;26.960;2023-01-27T07:33:19;98930.45;;;7.62;100.00
11413;BME280;5762;43.256;26.960;2023-01-27T07:35:47;98934.13;;;7.66;100.00
11413;BME280;5762;43.256;26.960;2023-01-27T07:38:16;98931.17;;;7.65;100.00
11413;BME280;5762;43.256;26.960;2023-01-27T07:40:45;98925.99;;;7.68;100.00
11413;BME280;5762;43.256;26.960;2023-01-27T07:43:13;98930.88;;;7.66;100.00
11413;BME280;5762;43.256;26.960;2023-01-27T07:45:42;98923.55;;;7.69;100.00
11413;BME280;5762;43.256;26.960;2023-01-27T07:48:11;98928.34;;;7.72;100.00
11413;BME280;5762;43.256;26.960;2023-01-27T07:50:40;98924.48;;;7.62;100.00
11413;BME280;5762;43.256;26.960;2023-01-27T07:53:08;98906.77;;;7.61;100.00
11413;BME280;5762;43.256;26.960;2023-01-27T07:55:37;98902.26;;;7.70;100.00
11413;BME280;5762;43.256;26.960;2023-01-27T07:58:06;98905.10;;;7.77;100.00
11413;BME280;5762;43.256;26.960;2023-01-27T08:00:34;98899.37;;;7.81;100.00
11413;BME280;5762;43.256;26.960;2023-01-27T08:03:03;98893.83;;;7.74;100.00
11413;BME280;5762;43.256;26.960;2023-01-27T08:05:32;98890.44;;;7.83;100.00
11413;BME280;5762;43.256;26.960;2023-01-27T08:08:02;98887.09;;;7.88;100.00
11413;BME280;5762;43.256;26.960;2023-01-27T08:10:30;98884.95;;;7.88;100.00
11413;BME280;5762;43.256;26.960;2023-01-27T08:12:59;98881.86;;;7.94;100.00
11413;BME280;5762;43.256;26.960;2023-01-27T08:15:27;98877.62;;;8.02;100.00
11413;BME280;5762;43.256;26.960;2023-01-27T08:17:59;98869.03;;;8.14;100.00
11413;BME280;5762;43.256;26.960;2023-01-27T08:20:27;98866.39;;;8.11;100.00
11413;BME280;5762;43.256;26.960;2023-01-27T08:22:55;98866.59;;;8.15;100.00
11413;BME280;5762;43.256;26.960;2023-01-27T08:25:24;98860.25;;;8.08;100.00
11413;BME280;5762;43.256;26.960;2023-01-27T08:27:54;98858.72;;;8.04;100.00
11413;BME280;5762;43.256;26.960;2023-01-27T08:30:22;98852.78;;;8.05;100.00
11413;BME280;5762;43.256;26.960;2023-01-27T08:32:50;98860.81;;;8.07;100.00
11413;BME280;5762;43.256;26.960;2023-01-27T08:35:19;98860.50;;;8.09;100.00
11413;BME280;5762;43.256;26.960;2023-01-27T08:37:48;98856.95;;;8.11;100.00
11413;BME280;5762;43.256;26.960;2023-01-27T08:40:17;98854.70;;;8.16;100.00
11413;BME280;5762;43.256;26.960;2023-01-27T08:42:48;98858.00;;;8.13;100.00
11413;BME280;5762;43.256;26.960;2023-01-27T08:45:15;98848.47;;;8.18;100.00
11413;BME280;5762;43.256;26.960;2023-01-27T08:47:44;98845.22;;;8.18;100.00
11413;BME280;5762;43.256;26.960;2023-01-27T08:50:13;98847.72;;;8.15;100.00
11413;BME280;5762;43.256;26.960;2023-01-27T08:52:42;98840.68;;;8.16;100.00
11413;BME280;5762;43.256;26.960;2023-01-27T08:55:11;98835.73;;;8.21;100.00
11413;BME280;5762;43.256;26.960;2023-01-27T08:57:39;98837.33;;;8.22;100.00
11413;BME280;5762;43.256;26.960;2023-01-27T09:00:09;98840.38;;;8.18;100.00
11413;BME280;5762;43.256;26.960;2023-01-27T09:02:40;98824.70;;;8.20;100.00
11413;BME280;5762;43.256;26.960;2023-01-27T09:05:09;98818.52;;;8.19;100.00
11413;BME280;5762;43.256;26.960;2023-01-27T09:07:38;98808.53;;;8.20;100.00
11413;BME280;5762;43.256;26.960;2023-01-27T09:10:06;98804.19;;;8.21;100.00
11413;BME280;5762;43.256;26.960;2023-01-27T09:12:37;98817.24;;;8.28;100.00
11413;BME280;5762;43.256;26.960;2023-01-27T09:15:07;98818.78;;;8.31;100.00
11413;BME280;5762;43.256;26.960;2023-01-27T09:17:36;98823.38;;;8.31;100.00
11413;BME280;5762;43.256;26.960;2023-01-27T09:20:05;98818.41;;;8.24;100.00
11413;BME280;5762;43.256;26.960;2023-01-27T09:22:36;98823.38;;;8.31;100.00
11413;BME280;5762;43.256;26.960;2023-01-27T09:25:11;98828.65;;;8.36;100.00
11413;BME280;5762;43.256;26.960;2023-01-27T09:27:34;98821.84;;;8.27;100.00
11413;BME280;5762;43.256;26.960;2023-01-27T09:30:04;98823.12;;;8.30;100.00
11413;BME280;5762;43.256;26.960;2023-01-27T09:32:33;98816.70;;;8.39;100.00
11413;BME280;5762;43.256;26.960;2023-01-27T09:35:02;98816.89;;;8.43;100.00
11413;BME280;5762;43.256;26.960;2023-01-27T09:37:32;98815.84;;;8.42;100.00
11413;BME280;5762;43.256;26.960;2023-01-27T09:40:00;98814.13;;;8.34;100.00
11413;BME280;5762;43.256;26.960;2023-01-27T09:47:51;98797.89;;;8.37;100.00
11413;BME280;5762;43.256;26.960;2023-01-27T09:50:33;98799.33;;;8.32;100.00
11413;BME280;5762;43.256;26.960;2023-01-27T09:53:03;98790.23;;;8.42;100.00
11413;BME280;5762;43.256;26.960;2023-01-27T09:58:16;98782.02;;;8.35;100.00
11413;BME280;5762;43.256;26.960;2023-01-27T10:00:48;98773.81;;;8.40;100.00
11413;BME280;5762;43.256;26.960;2023-01-27T10:13:45;98780.13;;;8.36;100.00
11413;BME280;5762;43.256;26.960;2023-01-27T10:21:30;98769.16;;;8.32;100.00
11413;BME280;5762;43.256;26.960;2023-01-27T10:24:15;98768.30;;;8.34;100.00
11413;BME280;5762;43.256;26.960;2023-01-27T10:26:50;98761.44;;;8.39;100.00
11413;BME280;5762;43.256;26.960;2023-01-27T10:34:17;98750.46;;;8.58;100.00
11413;BME280;5762;43.256;26.960;2023-01-27T10:36:54;98740.03;;;8.65;100.00
11413;BME280;5762;43.256;26.960;2023-01-27T10:42:16;98728.03;;;8.60;100.00
11413;BME280;5762;43.256;26.960;2023-01-27T10:50:05;98701.15;;;8.35;100.00
11413;BME280;5762;43.256;26.960;2023-01-27T10:52:36;98695.57;;;8.43;100.00
11413;BME280;5762;43.256;26.960;2023-01-27T10:55:18;98697.47;;;8.43;100.00
11413;BME280;5762;43.256;26.960;2023-01-27T10:58:00;98689.69;;;8.41;100.00
11413;BME280;5762;43.256;26.960;2023-01-27T11:00:37;98681.00;;;8.33;100.00
11413;BME280;5762;43.256;26.960;2023-01-27T11:03:23;98687.06;;;8.27;100.00
11413;BME280;5762;43.256;26.960;2023-01-27T11:05:58;98686.77;;;8.18;100.00
11413;BME280;5762;43.256;26.960;2023-01-27T11:08:24;98673.91;;;8.15;100.00
11413;BME280;5762;43.256;26.960;2023-01-27T11:10:53;98669.44;;;7.99;100.00
11413;BME280;5762;43.256;26.960;2023-01-27T11:13:38;98667.94;;;7.95;100.00
11413;BME280;5762;43.256;26.960;2023-01-27T11:16:15;98658.56;;;7.93;100.00
11413;BME280;5762;43.256;26.960;2023-01-27T11:18:43;98653.48;;;7.91;100.00
11413;BME280;5762;43.256;26.960;2023-01-27T11:21:16;98648.34;;;7.81;100.00
11413;BME280;5762;43.256;26.960;2023-01-27T11:23:46;98639.52;;;7.78;100.00
11413;BME280;5762;43.256;26.960;2023-01-27T11:31:36;98621.66;;;7.49;100.00
11413;BME280;5762;43.256;26.960;2023-01-27T11:34:03;98626.98;;;7.51;100.00
11413;BME280;5762;43.256;26.960;2023-01-27T11:36:32;98622.20;;;7.48;100.00
11413;BME280;5762;43.256;26.960;2023-01-27T11:39:01;98627.75;;;7.40;100.00
11413;BME280;5762;43.256;26.960;2023-01-27T11:41:32;98624.24;;;7.29;100.00
11413;BME280;5762;43.256;26.960;2023-01-27T11:44:05;98633.25;;;7.35;100.00
11413;BME280;5762;43.256;26.960;2023-01-27T11:46:33;98616.72;;;7.28;100.00
11413;BME280;5762;43.256;26.960;2023-01-27T11:49:02;98626.77;;;7.25;100.00
11413;BME280;5762;43.256;26.960;2023-01-27T11:51:37;98625.89;;;7.16;100.00
11413;BME280;5762;43.256;26.960;2023-01-27T11:56:31;98630.50;;;7.02;100.00
11413;BME280;5762;43.256;26.960;2023-01-27T11:59:03;98620.33;;;6.88;100.00
11413;BME280;5762;43.256;26.960;2023-01-27T12:01:42;98626.86;;;6.43;100.00
11413;BME280;5762;43.256;26.960;2023-01-27T12:04:12;98631.08;;;6.33;100.00
11413;BME280;5762;43.256;26.960;2023-01-27T12:09:48;98626.47;;;6.06;100.00
11413;BME280;5762;43.256;26.960;2023-01-27T12:11:50;98630.29;;;6.02;100.00
11413;BME280;5762;43.256;26.960;2023-01-27T12:14:19;98633.52;;;6.02;100.00
11413;BME280;5762;43.256;26.960;2023-01-27T12:16:49;98628.20;;;5.99;100.00
11413;BME280;5762;43.256;26.960;2023-01-27T12:21:51;98632.97;;;6.19;100.00
11413;BME280;5762;43.256;26.960;2023-01-27T12:24:30;98638.94;;;6.16;100.00
11413;BME280;5762;43.256;26.960;2023-01-27T12:26:59;98638.85;;;6.04;100.00
11413;BME280;5762;43.256;26.960;2023-01-27T12:29:41;98649.13;;;6.00;100.00
11413;BME280;5762;43.256;26.960;2023-01-27T12:32:14;98657.31;;;5.92;100.00
11413;BME280;5762;43.256;26.960;2023-01-27T12:34:43;98661.50;;;5.82;100.00
11413;BME280;5762;43.256;26.960;2023-01-27T12:37:18;98657.91;;;5.70;100.00
11413;BME280;5762;43.256;26.960;2023-01-27T12:39:44;98649.36;;;5.68;100.00
11413;BME280;5762;43.256;26.960;2023-01-27T12:44:58;98631.91;;;5.33;100.00
11413;BME280;5762;43.256;26.960;2023-01-27T12:47:27;98630.14;;;5.08;100.00
11413;BME280;5762;43.256;26.960;2023-01-27T12:52:43;98630.78;;;4.81;100.00
11413;BME280;5762;43.256;26.960;2023-01-27T12:55:28;98638.63;;;4.75;100.00
11413;BME280;5762;43.256;26.960;2023-01-27T12:57:57;98634.60;;;4.75;100.00
11413;BME280;5762;43.256;26.960;2023-01-27T13:00:25;98635.69;;;4.74;100.00
11413;BME280;5762;43.256;26.960;2023-01-27T13:02:59;98638.25;;;4.60;100.00
11413;BME280;5762;43.256;26.960;2023-01-27T13:05:24;98640.21;;;4.52;100.00
11413;BME280;5762;43.256;26.960;2023-01-27T13:07:52;98642.72;;;4.46;100.00
11413;BME280;5762;43.256;26.960;2023-01-27T13:10:22;98647.02;;;4.44;100.00
11413;BME280;5762;43.256;26.960;2023-01-27T13:12:52;98647.70;;;4.52;100.00
11413;BME280;5762;43.256;26.960;2023-01-27T13:15:21;98650.02;;;4.61;100.00
11413;BME280;5762;43.256;26.960;2023-01-27T13:17:56;98658.89;;;4.83;100.00
11413;BME280;5762;43.256;26.960;2023-01-27T13:22:58;98655.02;;;4.70;100.00
11413;BME280;5762;43.256;26.960;2023-01-27T13:25:42;98656.06;;;4.72;100.00
11413;BME280;5762;43.256;26.960;2023-01-27T13:28:10;98658.55;;;4.66;100.00
11413;BME280;5762;43.256;26.960;2023-01-27T13:30:39;98664.98;;;4.65;100.00
11413;BME280;5762;43.256;26.960;2023-01-27T13:41:21;98645.41;;;4.17;100.00
11413;BME280;5762;43.256;26.960;2023-01-27T13:43:50;98642.94;;;3.96;100.00
11413;BME280;5762;43.256;26.960;2023-01-27T13:46:20;98642.56;;;3.79;100.00
11413;BME280;5762;43.256;26.960;2023-01-27T13:48:53;98652.22;;;3.78;100.00
11413;BME280;5762;43.256;26.960;2023-01-27T13:51:26;98632.83;;;3.57;100.00
11413;BME280;5762;43.256;26.960;2023-01-27T13:53:56;98660.33;;;3.65;100.00
11413;BME280;5762;43.256;26.960;2023-01-27T14:07:16;98674.57;;;3.55;100.00
11413;BME280;5762;43.256;26.960;2023-01-27T14:12:32;98669.50;;;3.54;100.00
11413;BME280;5762;43.256;26.960;2023-01-27T14:17:44;98653.38;;;3.25;100.00
11413;BME280;5762;43.256;26.960;2023-01-27T14:20:20;98655.80;;;3.21;100.00
11413;BME280;5762;43.256;26.960;2023-01-27T14:22:50;98659.64;;;3.08;100.00
11413;BME280;5762;43.256;26.960;2023-01-27T14:25:31;98646.05;;;3.01;100.00
11413;BME280;5762;43.256;26.960;2023-01-27T14:28:05;98663.18;;;2.93;100.00
11413;BME280;5762;43.256;26.960;2023-01-27T14:30:40;98656.25;;;2.89;100.00
11413;BME280;5762;43.256;26.960;2023-01-27T14:36:01;98667.47;;;2.89;100.00
11413;BME280;5762;43.256;26.960;2023-01-27T14:38:37;98677.11;;;2.85;100.00
11413;BME280;5762;43.256;26.960;2023-01-27T14:41:18;98678.16;;;2.89;100.00
11413;BME280;5762;43.256;26.960;2023-01-27T14:44:00;98661.09;;;2.80;100.00
11413;BME280;5762;43.256;26.960;2023-01-27T14:49:23;98680.58;;;2.83;100.00
11413;BME280;5762;43.256;26.960;2023-01-27T14:51:47;98663.00;;;2.77;100.00